Time,TemperatureF,DewpointF,PressureIn,WindDirection,WindDirectionDegrees,WindSpeedMPH,WindSpeedGustMPH,Humidity,HourlyPrecipIn,Conditions,Clouds,dailyrainin,SoftwareType,DateUTC
2013-12-28 00:00:00,39.6,31.3,30.25,SSW,211,0.0,4.0,72,0.00,,---,0.00,VWS V14.01,2013-12-28 06:00:00,
2013-12-28 00:01:00,39.3,31.0,30.24,SSW,209,0.0,4.0,72,0.00,,---,0.00,VWS V14.01,2013-12-28 06:01:00,
2013-12-28 00:06:00,39.3,31.0,30.24,SSW,209,0.0,0.0,72,0.00,,---,0.00,VWS V14.01,2013-12-28 06:06:00,
2013-12-28 00:10:00,39.5,31.2,30.24,WSW,242,0.0,4.0,72,0.00,,---,0.00,VWS V14.01,2013-12-28 06:10:00,
2013-12-28 00:11:00,39.1,30.9,30.24,SSW,209,0.0,2.0,72,0.00,,---,0.00,VWS V14.01,2013-12-28 06:11:00,
2013-12-28 00:16:00,39.1,31.2,30.24,SSW,209,0.0,1.0,73,0.00,,---,0.00,VWS V14.01,2013-12-28 06:16:00,
2013-12-28 00:20:00,39.3,31.0,30.24,SSW,209,0.0,4.0,72,0.00,,---,0.00,VWS V14.01,2013-12-28 06:20:00,
2013-12-28 00:21:00,39.0,31.1,30.24,SSW,209,0.0,1.0,73,0.00,,---,0.00,VWS V14.01,2013-12-28 06:21:00,
2013-12-28 00:26:00,38.9,31.0,30.24,South,184,0.0,0.0,73,0.00,,---,0.00,VWS V14.01,2013-12-28 06:26:00,
2013-12-28 00:30:00,39.1,31.2,30.24,SSW,209,0.0,2.0,73,0.00,,---,0.00,VWS V14.01,2013-12-28 06:30:00,
2013-12-28 00:31:00,38.8,30.9,30.25,South,184,0.0,1.0,73,0.00,,---,0.00,VWS V14.01,2013-12-28 06:31:00,
2013-12-28 00:36:00,38.7,30.8,30.24,South,184,0.0,2.0,73,0.00,,---,0.00,VWS V14.01,2013-12-28 06:36:00,
2013-12-28 00:40:00,38.9,31.0,30.24,South,184,0.0,4.0,73,0.00,,---,0.00,VWS V14.01,2013-12-28 06:40:00,
2013-12-28 00:41:00,38.5,31.0,30.24,South,184,0.0,2.0,74,0.00,,---,0.00,VWS V14.01,2013-12-28 06:41:00,
2013-12-28 00:46:00,38.4,30.9,30.24,SW,224,0.0,2.0,74,0.00,,---,0.00,VWS V14.01,2013-12-28 06:46:00,
2013-12-28 00:50:00,38.8,30.9,30.24,South,184,0.0,1.0,73,0.00,,---,0.00,VWS V14.01,2013-12-28 06:50:00,
2013-12-28 00:51:00,38.4,30.9,30.24,SW,225,2.0,2.0,74,0.00,,---,0.00,VWS V14.01,2013-12-28 06:51:00,
2013-12-28 00:56:00,38.3,30.8,30.24,SW,224,0.0,1.0,74,0.00,,---,0.00,VWS V14.01,2013-12-28 06:56:00,
2013-12-28 01:00:00,38.5,31.0,30.24,SW,224,2.0,2.0,74,0.00,,---,0.00,VWS V14.01,2013-12-28 07:00:00,
2013-12-28 01:01:00,38.3,30.8,30.24,SW,224,0.0,2.0,74,0.00,,---,0.00,VWS V14.01,2013-12-28 07:01:00,
2013-12-28 01:06:00,38.2,30.7,30.24,SW,224,0.0,2.0,74,0.00,,---,0.00,VWS V14.01,2013-12-28 07:06:00,
2013-12-28 01:10:00,38.3,30.8,30.24,SW,224,0.0,3.0,74,0.00,,---,0.00,VWS V14.01,2013-12-28 07:10:00,
2013-12-28 01:11:00,38.1,30.9,30.24,SSW,198,1.0,3.0,75,0.00,,---,0.00,VWS V14.01,2013-12-28 07:11:00,
2013-12-28 01:16:00,38.2,31.0,30.24,South,178,0.0,5.0,75,0.00,,---,0.00,VWS V14.01,2013-12-28 07:16:00,
2013-12-28 01:20:00,38.2,30.7,30.24,SW,224,0.0,2.0,74,0.00,,---,0.00,VWS V14.01,2013-12-28 07:20:00,
2013-12-28 01:21:00,38.3,31.1,30.24,SW,226,1.0,5.0,75,0.00,,---,0.00,VWS V14.01,2013-12-28 07:21:00,
2013-12-28 01:26:00,38.5,31.0,30.23,SW,236,2.0,2.0,74,0.00,,---,0.00,VWS V14.01,2013-12-28 07:26:00,
2013-12-28 01:30:00,38.2,31.0,30.24,SSE,167,0.0,5.0,75,0.00,,---,0.00,VWS V14.01,2013-12-28 07:30:00,
2013-12-28 01:31:00,38.6,31.0,30.23,SW,235,0.0,3.0,74,0.00,,---,0.00,VWS V14.01,2013-12-28 07:31:00,
2013-12-28 01:36:00,38.7,31.1,30.23,SW,235,0.0,0.0,74,0.00,,---,0.00,VWS V14.01,2013-12-28 07:36:00,
2013-12-28 01:40:00,38.4,30.9,30.23,South,177,1.0,5.0,74,0.00,,---,0.00,VWS V14.01,2013-12-28 07:40:00,
2013-12-28 01:41:00,38.7,31.1,30.23,SSW,209,1.0,4.0,74,0.00,,---,0.00,VWS V14.01,2013-12-28 07:41:00,
2013-12-28 01:46:00,38.7,31.1,30.23,SW,235,1.0,3.0,74,0.00,,---,0.00,VWS V14.01,2013-12-28 07:46:00,
2013-12-28 01:50:00,38.7,31.1,30.23,SW,235,0.0,3.0,74,0.00,,---,0.00,VWS V14.01,2013-12-28 07:50:00,
2013-12-28 01:51:00,38.8,31.2,30.23,South,170,1.0,4.0,74,0.00,,---,0.00,VWS V14.01,2013-12-28 07:51:00,
2013-12-28 01:56:00,38.8,31.2,30.23,SW,231,2.0,3.0,74,0.00,,---,0.00,VWS V14.01,2013-12-28 07:56:00,
2013-12-28 02:00:00,38.7,31.1,30.23,SSW,203,1.0,4.0,74,0.00,,---,0.00,VWS V14.01,2013-12-28 08:00:00,
2013-12-28 02:01:00,38.9,31.0,30.23,SSW,196,0.0,3.0,73,0.00,,---,0.00,VWS V14.01,2013-12-28 08:01:00,
2013-12-28 02:06:00,39.0,31.4,30.23,SSW,196,0.0,1.0,74,0.00,,---,0.00,VWS V14.01,2013-12-28 08:06:00,
2013-12-28 02:10:00,38.8,31.2,30.23,SW,231,0.0,4.0,74,0.00,,---,0.00,VWS V14.01,2013-12-28 08:10:00,
2013-12-28 02:11:00,39.0,31.1,30.23,SSW,196,0.0,1.0,73,0.00,,---,0.00,VWS V14.01,2013-12-28 08:11:00,
2013-12-28 02:16:00,39.0,31.1,30.23,SSW,196,0.0,0.0,73,0.00,,---,0.00,VWS V14.01,2013-12-28 08:16:00,
2013-12-28 02:20:00,39.0,31.1,30.23,SSW,196,0.0,3.0,73,0.00,,---,0.00,VWS V14.01,2013-12-28 08:20:00,
2013-12-28 02:21:00,38.8,30.9,30.23,SSW,196,0.0,0.0,73,0.00,,---,0.00,VWS V14.01,2013-12-28 08:21:00,
2013-12-28 02:26:00,38.5,30.6,30.23,SSW,196,0.0,0.0,73,0.00,,---,0.00,VWS V14.01,2013-12-28 08:26:00,
2013-12-28 02:30:00,39.0,31.1,30.23,SSW,196,0.0,1.0,73,0.00,,---,0.00,VWS V14.01,2013-12-28 08:30:00,
2013-12-28 02:31:00,38.1,30.2,30.23,SSW,196,0.0,0.0,73,0.00,,---,0.00,VWS V14.01,2013-12-28 08:31:00,
2013-12-28 02:36:00,37.6,30.1,30.23,SSW,196,0.0,0.0,74,0.00,,---,0.00,VWS V14.01,2013-12-28 08:36:00,
2013-12-28 02:40:00,38.6,30.7,30.23,SSW,196,0.0,0.0,73,0.00,,---,0.00,VWS V14.01,2013-12-28 08:40:00,
2013-12-28 02:41:00,37.0,29.5,30.22,SSW,196,0.0,0.0,74,0.00,,---,0.00,VWS V14.01,2013-12-28 08:41:00,
2013-12-28 02:46:00,36.4,29.2,30.22,SSW,196,0.0,0.0,75,0.00,,---,0.00,VWS V14.01,2013-12-28 08:46:00,
2013-12-28 02:50:00,37.7,29.8,30.23,SSW,196,0.0,0.0,73,0.00,,---,0.00,VWS V14.01,2013-12-28 08:50:00,
2013-12-28 02:51:00,35.9,29.1,30.22,SSW,196,0.0,0.0,76,0.00,,---,0.00,VWS V14.01,2013-12-28 08:51:00,
2013-12-28 02:56:00,35.4,28.9,30.22,SSW,196,0.0,0.0,77,0.00,,---,0.00,VWS V14.01,2013-12-28 08:56:00,
2013-12-28 03:00:00,36.6,29.4,30.23,SSW,196,0.0,0.0,75,0.00,,---,0.00,VWS V14.01,2013-12-28 09:00:00,
2013-12-28 03:01:00,34.9,28.4,30.22,SSW,196,0.0,0.0,77,0.00,,---,0.00,VWS V14.01,2013-12-28 09:01:00,
2013-12-28 03:06:00,34.4,28.3,30.22,SSW,196,0.0,0.0,78,0.00,,---,0.00,VWS V14.01,2013-12-28 09:06:00,
2013-12-28 03:10:00,35.5,28.7,30.22,SSW,196,0.0,0.0,76,0.00,,---,0.00,VWS V14.01,2013-12-28 09:10:00,
2013-12-28 03:11:00,34.1,28.0,30.22,SSW,196,0.0,0.0,78,0.00,,---,0.00,VWS V14.01,2013-12-28 09:11:00,
2013-12-28 03:16:00,33.6,27.8,30.22,SSW,196,0.0,0.0,79,0.00,,---,0.00,VWS V14.01,2013-12-28 09:16:00,
2013-12-28 03:20:00,34.6,28.1,30.22,SSW,196,0.0,0.0,77,0.00,,---,0.00,VWS V14.01,2013-12-28 09:20:00,
2013-12-28 03:21:00,33.3,27.8,30.21,SSW,196,0.0,0.0,80,0.00,,---,0.00,VWS V14.01,2013-12-28 09:21:00,
2013-12-28 03:26:00,32.9,27.4,30.21,SSW,196,0.0,0.0,80,0.00,,---,0.00,VWS V14.01,2013-12-28 09:26:00,
2013-12-28 03:30:00,33.7,27.9,30.22,SSW,196,0.0,0.0,79,0.00,,---,0.00,VWS V14.01,2013-12-28 09:30:00,
2013-12-28 03:31:00,32.6,27.1,30.20,SSW,196,0.0,0.0,80,0.00,,---,0.00,VWS V14.01,2013-12-28 09:31:00,
2013-12-28 03:36:00,32.4,27.2,30.20,SSW,196,0.0,0.0,81,0.00,,---,0.00,VWS V14.01,2013-12-28 09:36:00,
2013-12-28 03:40:00,33.0,27.5,30.21,SSW,196,0.0,1.0,80,0.00,,---,0.00,VWS V14.01,2013-12-28 09:40:00,
2013-12-28 03:41:00,32.1,27.2,30.20,SSW,196,0.0,1.0,82,0.00,,---,0.00,VWS V14.01,2013-12-28 09:41:00,
2013-12-28 03:46:00,32.0,27.4,30.20,SSW,196,0.0,0.0,83,0.00,,---,0.00,VWS V14.01,2013-12-28 09:46:00,
2013-12-28 03:50:00,32.4,27.2,30.20,SSW,196,0.0,0.0,81,0.00,,---,0.00,VWS V14.01,2013-12-28 09:50:00,
2013-12-28 03:51:00,31.9,27.3,30.20,SSW,196,0.0,1.0,83,0.00,,---,0.00,VWS V14.01,2013-12-28 09:51:00,
2013-12-28 03:56:00,31.8,27.2,30.19,SSW,196,0.0,0.0,83,0.00,,---,0.00,VWS V14.01,2013-12-28 09:56:00,
2013-12-28 04:00:00,32.0,27.4,30.20,SSW,196,0.0,1.0,83,0.00,,---,0.00,VWS V14.01,2013-12-28 10:00:00,
2013-12-28 04:01:00,31.6,27.3,30.19,SSW,196,0.0,0.0,84,0.00,,---,0.00,VWS V14.01,2013-12-28 10:01:00,
2013-12-28 04:06:00,31.5,27.2,30.19,SSW,196,0.0,0.0,84,0.00,,---,0.00,VWS V14.01,2013-12-28 10:06:00,
2013-12-28 04:10:00,31.8,27.2,30.19,SSW,196,0.0,1.0,83,0.00,,---,0.00,VWS V14.01,2013-12-28 10:10:00,
2013-12-28 04:11:00,31.4,27.1,30.19,SSW,196,0.0,0.0,84,0.00,,---,0.00,VWS V14.01,2013-12-28 10:11:00,
2013-12-28 04:16:00,31.3,27.0,30.19,SSW,196,0.0,0.0,84,0.00,,---,0.00,VWS V14.01,2013-12-28 10:16:00,
2013-12-28 04:20:00,31.5,27.2,30.19,SSW,196,0.0,0.0,84,0.00,,---,0.00,VWS V14.01,2013-12-28 10:20:00,
2013-12-28 04:21:00,31.1,26.8,30.19,SSW,196,0.0,1.0,84,0.00,,---,0.00,VWS V14.01,2013-12-28 10:21:00,
2013-12-28 04:26:00,31.0,27.0,30.18,SSW,196,0.0,0.0,85,0.00,,---,0.00,VWS V14.01,2013-12-28 10:26:00,
2013-12-28 04:30:00,31.3,27.0,30.19,SSW,196,0.0,0.0,84,0.00,,---,0.00,VWS V14.01,2013-12-28 10:30:00,
2013-12-28 04:31:00,30.9,26.9,30.18,SSW,196,0.0,0.0,85,0.00,,---,0.00,VWS V14.01,2013-12-28 10:31:00,
2013-12-28 04:36:00,30.8,27.1,30.18,SSW,196,0.0,0.0,86,0.00,,---,0.00,VWS V14.01,2013-12-28 10:36:00,
2013-12-28 04:40:00,31.0,26.7,30.18,SSW,196,0.0,1.0,84,0.00,,---,0.00,VWS V14.01,2013-12-28 10:40:00,
2013-12-28 04:41:00,30.8,27.1,30.18,SSW,196,0.0,0.0,86,0.00,,---,0.00,VWS V14.01,2013-12-28 10:41:00,
2013-12-28 04:46:00,30.8,27.4,30.18,SSW,196,0.0,0.0,87,0.00,,---,0.00,VWS V14.01,2013-12-28 10:46:00,
2013-12-28 04:50:00,30.8,26.8,30.18,SSW,196,0.0,1.0,85,0.00,,---,0.00,VWS V14.01,2013-12-28 10:50:00,
2013-12-28 04:51:00,30.9,27.5,30.18,SSW,196,0.0,0.0,87,0.00,,---,0.00,VWS V14.01,2013-12-28 10:51:00,
2013-12-28 04:56:00,31.0,27.6,30.18,SSW,196,0.0,0.0,87,0.00,,---,0.00,VWS V14.01,2013-12-28 10:56:00,
2013-12-28 05:00:00,30.9,27.5,30.18,SSW,196,0.0,1.0,87,0.00,,---,0.00,VWS V14.01,2013-12-28 11:00:00,
2013-12-28 05:01:00,31.1,27.7,30.18,SSW,196,0.0,0.0,87,0.00,,---,0.00,VWS V14.01,2013-12-28 11:01:00,
2013-12-28 05:02:00,31.1,27.7,30.18,SSW,196,0.0,0.0,87,0.00,,---,0.00,VWS V14.01,2013-12-28 11:02:00,
2013-12-28 05:07:00,31.2,28.1,30.17,SSW,196,0.0,0.0,88,0.00,,---,0.00,VWS V14.01,2013-12-28 11:07:00,
2013-12-28 05:10:00,31.0,27.6,30.18,SSW,196,0.0,0.0,87,0.00,,---,0.00,VWS V14.01,2013-12-28 11:10:00,
2013-12-28 05:12:00,31.3,28.2,30.17,SSW,196,0.0,0.0,88,0.00,,---,0.00,VWS V14.01,2013-12-28 11:12:00,
2013-12-28 05:17:00,31.4,28.3,30.17,SSW,196,0.0,0.0,88,0.00,,---,0.00,VWS V14.01,2013-12-28 11:17:00,
2013-12-28 05:20:00,31.1,27.7,30.18,SSW,196,0.0,0.0,87,0.00,,---,0.00,VWS V14.01,2013-12-28 11:20:00,
2013-12-28 05:22:00,31.5,28.4,30.17,SSW,196,0.0,0.0,88,0.00,,---,0.00,VWS V14.01,2013-12-28 11:22:00,
2013-12-28 05:27:00,31.5,28.1,30.17,SSW,196,0.0,0.0,87,0.00,,---,0.00,VWS V14.01,2013-12-28 11:27:00,
2013-12-28 05:30:00,31.4,28.3,30.17,SSW,196,0.0,0.0,88,0.00,,---,0.00,VWS V14.01,2013-12-28 11:30:00,
2013-12-28 05:32:00,31.5,28.1,30.17,SSW,196,0.0,0.0,87,0.00,,---,0.00,VWS V14.01,2013-12-28 11:32:00,
2013-12-28 05:37:00,31.4,27.7,30.17,SSW,196,0.0,0.0,86,0.00,,---,0.00,VWS V14.01,2013-12-28 11:37:00,
2013-12-28 05:40:00,31.5,28.1,30.17,SSW,196,0.0,1.0,87,0.00,,---,0.00,VWS V14.01,2013-12-28 11:40:00,
2013-12-28 05:42:00,31.3,27.6,30.17,SSW,196,0.0,0.0,86,0.00,,---,0.00,VWS V14.01,2013-12-28 11:42:00,
2013-12-28 05:47:00,31.3,27.9,30.17,SSW,196,0.0,0.0,87,0.00,,---,0.00,VWS V14.01,2013-12-28 11:47:00,
2013-12-28 05:50:00,31.5,27.8,30.17,SSW,196,0.0,0.0,86,0.00,,---,0.00,VWS V14.01,2013-12-28 11:50:00,
2013-12-28 05:52:00,31.3,27.9,30.17,SSW,196,0.0,1.0,87,0.00,,---,0.00,VWS V14.01,2013-12-28 11:52:00,
2013-12-28 05:57:00,31.4,28.3,30.17,SSW,196,1.0,1.0,88,0.00,,---,0.00,VWS V14.01,2013-12-28 11:57:00,
2013-12-28 06:00:00,31.3,27.9,30.17,SSW,196,0.0,0.0,87,0.00,,---,0.00,VWS V14.01,2013-12-28 12:00:00,
2013-12-28 06:02:00,31.6,28.5,30.17,SSW,196,0.0,1.0,88,0.00,,---,0.00,VWS V14.01,2013-12-28 12:02:00,
2013-12-28 06:07:00,31.9,28.8,30.16,SSW,196,0.0,1.0,88,0.00,,---,0.00,VWS V14.01,2013-12-28 12:07:00,
2013-12-28 06:10:00,31.4,28.0,30.17,SSW,196,0.0,1.0,87,0.00,,---,0.00,VWS V14.01,2013-12-28 12:10:00,
2013-12-28 06:12:00,32.1,28.7,30.16,SSW,196,0.0,1.0,87,0.00,,---,0.00,VWS V14.01,2013-12-28 12:12:00,
2013-12-28 06:17:00,32.3,28.6,30.16,SSW,196,0.0,0.0,86,0.00,,---,0.00,VWS V14.01,2013-12-28 12:17:00,
2013-12-28 06:20:00,31.8,28.7,30.17,SSW,196,0.0,2.0,88,0.00,,---,0.00,VWS V14.01,2013-12-28 12:20:00,
2013-12-28 06:22:00,32.3,28.6,30.16,SSW,196,0.0,1.0,86,0.00,,---,0.00,VWS V14.01,2013-12-28 12:22:00,
2013-12-28 06:27:00,32.3,28.6,30.16,SSW,196,0.0,0.0,86,0.00,,---,0.00,VWS V14.01,2013-12-28 12:27:00,
2013-12-28 06:30:00,32.2,28.8,30.16,SSW,196,0.0,1.0,87,0.00,,---,0.00,VWS V14.01,2013-12-28 12:30:00,
2013-12-28 06:32:00,32.3,28.6,30.16,SSW,196,0.0,0.0,86,0.00,,---,0.00,VWS V14.01,2013-12-28 12:32:00,
2013-12-28 06:37:00,32.5,28.8,30.16,SSW,196,0.0,1.0,86,0.00,,---,0.00,VWS V14.01,2013-12-28 12:37:00,
2013-12-28 06:40:00,32.3,28.6,30.16,SSW,196,0.0,1.0,86,0.00,,---,0.00,VWS V14.01,2013-12-28 12:40:00,
2013-12-28 06:42:00,32.7,29.0,30.16,SSW,197,2.0,3.0,86,0.00,,---,0.00,VWS V14.01,2013-12-28 12:42:00,
2013-12-28 06:47:00,32.9,28.9,30.16,SSW,197,0.0,0.0,85,0.00,,---,0.00,VWS V14.01,2013-12-28 12:47:00,
2013-12-28 06:50:00,32.4,28.7,30.16,SSW,196,0.0,0.0,86,0.00,,---,0.00,VWS V14.01,2013-12-28 12:50:00,
2013-12-28 06:52:00,33.0,29.0,30.15,SSW,197,0.0,1.0,85,0.00,,---,0.00,VWS V14.01,2013-12-28 12:52:00,
2013-12-28 06:57:00,33.0,28.7,30.15,SSW,197,0.0,2.0,84,0.00,,---,0.00,VWS V14.01,2013-12-28 12:57:00,
2013-12-28 07:00:00,32.8,29.1,30.16,SSW,197,0.0,3.0,86,0.00,,---,0.00,VWS V14.01,2013-12-28 13:00:00,
2013-12-28 07:02:00,33.0,28.7,30.15,SSW,197,1.0,2.0,84,0.00,,---,0.00,VWS V14.01,2013-12-28 13:02:00,
2013-12-28 07:07:00,33.2,28.9,30.15,SSW,212,0.0,0.0,84,0.00,,---,0.00,VWS V14.01,2013-12-28 13:07:00,
2013-12-28 07:10:00,33.0,28.7,30.15,SSW,197,1.0,1.0,84,0.00,,---,0.00,VWS V14.01,2013-12-28 13:10:00,
2013-12-28 07:12:00,33.3,28.7,30.15,SSW,212,0.0,1.0,83,0.00,,---,0.00,VWS V14.01,2013-12-28 13:12:00,
2013-12-28 07:17:00,33.2,28.6,30.15,SSW,212,0.0,0.0,83,0.00,,---,0.00,VWS V14.01,2013-12-28 13:17:00,
2013-12-28 07:20:00,33.1,28.8,30.15,SSW,212,0.0,2.0,84,0.00,,---,0.00,VWS V14.01,2013-12-28 13:20:00,
2013-12-28 07:22:00,33.1,28.5,30.15,SSW,212,0.0,0.0,83,0.00,,---,0.00,VWS V14.01,2013-12-28 13:22:00,
2013-12-28 07:27:00,33.0,28.4,30.15,SSW,212,0.0,0.0,83,0.00,,---,0.00,VWS V14.01,2013-12-28 13:27:00,
2013-12-28 07:30:00,33.3,28.7,30.15,SSW,212,0.0,1.0,83,0.00,,---,0.00,VWS V14.01,2013-12-28 13:30:00,
2013-12-28 07:32:00,33.0,28.4,30.15,SSW,212,0.0,1.0,83,0.00,,---,0.00,VWS V14.01,2013-12-28 13:32:00,
2013-12-28 07:37:00,32.9,28.3,30.15,SSW,213,1.0,1.0,83,0.00,,---,0.00,VWS V14.01,2013-12-28 13:37:00,
2013-12-28 07:40:00,33.1,28.5,30.15,SSW,212,0.0,0.0,83,0.00,,---,0.00,VWS V14.01,2013-12-28 13:40:00,
2013-12-28 07:42:00,32.9,28.3,30.14,SSW,211,0.0,3.0,83,0.00,,---,0.00,VWS V14.01,2013-12-28 13:42:00,
2013-12-28 07:47:00,32.9,28.6,30.14,SSW,211,0.0,3.0,84,0.00,,---,0.00,VWS V14.01,2013-12-28 13:47:00,
2013-12-28 07:50:00,32.9,28.3,30.15,SSW,212,0.0,1.0,83,0.00,,---,0.00,VWS V14.01,2013-12-28 13:50:00,
2013-12-28 07:52:00,33.0,28.4,30.14,SSW,211,0.0,3.0,83,0.00,,---,0.00,VWS V14.01,2013-12-28 13:52:00,
2013-12-28 07:57:00,33.1,28.5,30.14,WSW,249,1.0,3.0,83,0.00,,---,0.00,VWS V14.01,2013-12-28 13:57:00,
2013-12-28 08:00:00,32.9,28.3,30.14,SSW,211,0.0,3.0,83,0.00,,---,0.00,VWS V14.01,2013-12-28 14:00:00,
2013-12-28 08:02:00,33.2,28.9,30.14,WSW,249,0.0,3.0,84,0.00,,---,0.00,VWS V14.01,2013-12-28 14:02:00,
2013-12-28 08:07:00,33.5,28.9,30.14,SW,218,0.0,2.0,83,0.00,,---,0.00,VWS V14.01,2013-12-28 14:07:00,
2013-12-28 08:10:00,33.0,28.4,30.14,SSW,211,0.0,3.0,83,0.00,,---,0.00,VWS V14.01,2013-12-28 14:10:00,
2013-12-28 08:11:00,33.7,29.1,30.13,SW,218,0.0,2.0,83,0.00,,---,0.00,VWS V14.01,2013-12-28 14:11:00,
2013-12-28 08:16:00,34.0,29.4,30.14,SW,218,0.0,0.0,83,0.00,,---,0.00,VWS V14.01,2013-12-28 14:16:00,
2013-12-28 08:20:00,33.4,29.1,30.14,SW,218,0.0,3.0,84,0.00,,---,0.00,VWS V14.01,2013-12-28 14:20:00,
2013-12-28 08:21:00,34.2,29.6,30.14,SW,218,0.0,3.0,83,0.00,,---,0.00,VWS V14.01,2013-12-28 14:21:00,
2013-12-28 08:26:00,34.5,29.6,30.13,SW,230,1.0,3.0,82,0.00,,---,0.00,VWS V14.01,2013-12-28 14:26:00,
2013-12-28 08:30:00,33.9,29.3,30.13,SW,218,0.0,2.0,83,0.00,,---,0.00,VWS V14.01,2013-12-28 14:30:00,
2013-12-28 08:31:00,34.8,29.9,30.13,SW,230,2.0,3.0,82,0.00,,---,0.00,VWS V14.01,2013-12-28 14:31:00,
2013-12-28 08:36:00,35.2,30.3,30.14,South,189,1.0,2.0,82,0.00,,---,0.00,VWS V14.01,2013-12-28 14:36:00,
2013-12-28 08:40:00,34.4,29.8,30.14,SSW,206,0.0,3.0,83,0.00,,---,0.00,VWS V14.01,2013-12-28 14:40:00,
2013-12-28 08:41:00,35.7,30.5,30.13,SW,225,1.0,4.0,81,0.00,,---,0.00,VWS V14.01,2013-12-28 14:41:00,
2013-12-28 08:46:00,36.1,30.5,30.13,South,176,2.0,5.0,80,0.00,,---,0.00,VWS V14.01,2013-12-28 14:46:00,
2013-12-28 08:50:00,35.1,30.2,30.14,South,189,0.0,3.0,82,0.00,,---,0.00,VWS V14.01,2013-12-28 14:50:00,
2013-12-28 08:51:00,36.5,30.6,30.12,South,176,0.0,5.0,79,0.00,,---,0.00,VWS V14.01,2013-12-28 14:51:00,
2013-12-28 08:56:00,36.8,30.9,30.12,South,185,0.0,5.0,79,0.00,,---,0.00,VWS V14.01,2013-12-28 14:56:00,
2013-12-28 09:00:00,36.0,30.4,30.13,SW,225,0.0,4.0,80,0.00,,---,0.00,VWS V14.01,2013-12-28 15:00:00,
2013-12-28 09:01:00,37.1,30.9,30.12,SW,230,3.0,5.0,78,0.00,,---,0.00,VWS V14.01,2013-12-28 15:01:00,
2013-12-28 09:06:00,37.6,31.1,30.12,SSW,213,3.0,4.0,77,0.00,,---,0.00,VWS V14.01,2013-12-28 15:06:00,
2013-12-28 09:10:00,36.7,30.8,30.12,South,190,0.0,5.0,79,0.00,,---,0.00,VWS V14.01,2013-12-28 15:10:00,
2013-12-28 09:11:00,38.0,31.1,30.12,SW,233,2.0,9.0,76,0.00,,---,0.00,VWS V14.01,2013-12-28 15:11:00,
2013-12-28 09:16:00,38.3,31.4,30.12,SSW,194,0.0,5.0,76,0.00,,---,0.00,VWS V14.01,2013-12-28 15:16:00,
2013-12-28 09:20:00,37.4,30.9,30.12,WSW,257,4.0,5.0,77,0.00,,---,0.00,VWS V14.01,2013-12-28 15:20:00,
2013-12-28 09:21:00,38.6,31.4,30.12,SSW,194,2.0,6.0,75,0.00,,---,0.00,VWS V14.01,2013-12-28 15:21:00,
2013-12-28 09:26:00,38.9,31.7,30.12,West,259,1.0,4.0,75,0.00,,---,0.00,VWS V14.01,2013-12-28 15:26:00,
2013-12-28 09:30:00,38.2,31.3,30.12,SW,230,3.0,9.0,76,0.00,,---,0.00,VWS V14.01,2013-12-28 15:30:00,
2013-12-28 09:31:00,39.2,31.6,30.12,SW,236,0.0,6.0,74,0.00,,---,0.00,VWS V14.01,2013-12-28 15:31:00,
2013-12-28 09:36:00,39.5,31.6,30.12,SW,228,1.0,5.0,73,0.00,,---,0.00,VWS V14.01,2013-12-28 15:36:00,
2013-12-28 09:40:00,38.8,31.2,30.12,SW,236,1.0,6.0,74,0.00,,---,0.00,VWS V14.01,2013-12-28 15:40:00,
2013-12-28 09:41:00,39.8,31.5,30.12,South,179,2.0,6.0,72,0.00,,---,0.00,VWS V14.01,2013-12-28 15:41:00,
2013-12-28 09:46:00,40.1,31.8,30.12,WSW,242,0.0,5.0,72,0.00,,---,0.00,VWS V14.01,2013-12-28 15:46:00,
2013-12-28 09:50:00,39.4,31.5,30.12,SSW,210,3.0,6.0,73,0.00,,---,0.00,VWS V14.01,2013-12-28 15:50:00,
2013-12-28 09:51:00,40.4,31.8,30.12,SW,216,2.0,8.0,71,0.00,,---,0.00,VWS V14.01,2013-12-28 15:51:00,
2013-12-28 09:56:00,40.7,31.7,30.11,WSW,242,1.0,5.0,70,0.00,,---,0.00,VWS V14.01,2013-12-28 15:56:00,
2013-12-28 10:00:00,40.0,31.7,30.12,West,263,0.0,6.0,72,0.00,,---,0.00,VWS V14.01,2013-12-28 16:00:00,
2013-12-28 10:01:00,41.1,32.1,30.11,SSW,200,3.0,5.0,70,0.00,,---,0.00,VWS V14.01,2013-12-28 16:01:00,
2013-12-28 10:06:00,41.4,32.0,30.11,SSW,202,2.0,5.0,69,0.00,,---,0.00,VWS V14.01,2013-12-28 16:06:00,
2013-12-28 10:10:00,40.6,32.0,30.11,SW,217,4.0,8.0,71,0.00,,---,0.00,VWS V14.01,2013-12-28 16:10:00,
2013-12-28 10:11:00,41.7,32.3,30.10,SSW,204,0.0,5.0,69,0.00,,---,0.00,VWS V14.01,2013-12-28 16:11:00,
2013-12-28 10:16:00,42.0,32.2,30.10,South,187,3.0,6.0,68,0.00,,---,0.00,VWS V14.01,2013-12-28 16:16:00,
2013-12-28 10:20:00,41.3,32.3,30.11,South,182,2.0,5.0,70,0.00,,---,0.00,VWS V14.01,2013-12-28 16:20:00,
2013-12-28 10:21:00,42.3,32.1,30.11,SSW,207,0.0,6.0,67,0.00,,---,0.00,VWS V14.01,2013-12-28 16:21:00,
2013-12-28 10:26:00,42.7,32.2,30.10,SW,217,3.0,6.0,66,0.00,,---,0.00,VWS V14.01,2013-12-28 16:26:00,
2013-12-28 10:30:00,41.9,32.1,30.11,SW,227,0.0,7.0,68,0.00,,---,0.00,VWS V14.01,2013-12-28 16:30:00,
2013-12-28 10:31:00,43.0,32.4,30.10,SSW,200,1.0,6.0,66,0.01,,---,0.01,VWS V14.01,2013-12-28 16:31:00,
2013-12-28 10:36:00,43.4,32.4,30.10,SSW,212,3.0,5.0,65,0.01,,---,0.01,VWS V14.01,2013-12-28 16:36:00,
2013-12-28 10:40:00,42.5,32.3,30.10,WSW,242,2.0,6.0,67,0.00,,---,0.00,VWS V14.01,2013-12-28 16:40:00,
2013-12-28 10:41:00,43.7,32.3,30.10,SW,233,8.0,8.0,64,0.01,,---,0.01,VWS V14.01,2013-12-28 16:41:00,
2013-12-28 10:46:00,44.1,32.3,30.10,SSW,207,2.0,7.0,63,0.02,,---,0.02,VWS V14.01,2013-12-28 16:46:00,
2013-12-28 10:50:00,43.3,32.3,30.10,SSW,196,3.0,6.0,65,0.01,,---,0.01,VWS V14.01,2013-12-28 16:50:00,
2013-12-28 10:51:00,44.4,32.2,30.09,WSW,253,2.0,7.0,62,0.02,,---,0.02,VWS V14.01,2013-12-28 16:51:00,
2013-12-28 10:56:00,44.8,32.6,30.09,SW,219,4.0,4.0,62,0.02,,---,0.02,VWS V14.01,2013-12-28 16:56:00,
2013-12-28 11:00:00,44.0,32.6,30.10,SSW,207,5.0,8.0,64,0.01,,---,0.01,VWS V14.01,2013-12-28 17:00:00,
2013-12-28 11:01:00,45.1,32.9,30.10,West,268,6.0,6.0,62,0.02,,---,0.02,VWS V14.01,2013-12-28 17:01:00,
2013-12-28 11:06:00,45.4,33.2,30.09,South,182,2.0,4.0,62,0.02,,---,0.02,VWS V14.01,2013-12-28 17:06:00,
2013-12-28 11:10:00,44.7,32.5,30.09,South,180,3.0,7.0,62,0.02,,---,0.02,VWS V14.01,2013-12-28 17:10:00,
2013-12-28 11:11:00,45.5,33.2,30.09,SSW,196,2.0,6.0,62,0.02,,---,0.02,VWS V14.01,2013-12-28 17:11:00,
2013-12-28 11:16:00,45.5,32.8,30.09,SSW,193,2.0,5.0,61,0.02,,---,0.02,VWS V14.01,2013-12-28 17:16:00,
2013-12-28 11:20:00,45.3,33.1,30.09,South,177,4.0,6.0,62,0.02,,---,0.02,VWS V14.01,2013-12-28 17:20:00,
2013-12-28 11:21:00,45.6,32.9,30.09,SW,223,0.0,7.0,61,0.02,,---,0.02,VWS V14.01,2013-12-28 17:21:00,
2013-12-28 11:26:00,45.7,33.0,30.09,SW,214,0.0,4.0,61,0.02,,---,0.02,VWS V14.01,2013-12-28 17:26:00,
2013-12-28 11:30:00,45.5,32.8,30.09,South,186,3.0,8.0,61,0.02,,---,0.02,VWS V14.01,2013-12-28 17:30:00,
2013-12-28 11:31:00,45.8,33.5,30.08,South,187,2.0,4.0,62,0.02,,---,0.02,VWS V14.01,2013-12-28 17:31:00,
2013-12-28 11:36:00,45.9,33.6,30.08,WSW,253,4.0,7.0,62,0.01,,---,0.02,VWS V14.01,2013-12-28 17:36:00,
2013-12-28 11:40:00,45.7,33.4,30.09,SSW,211,3.0,7.0,62,0.02,,---,0.02,VWS V14.01,2013-12-28 17:40:00,
2013-12-28 11:41:00,46.0,33.3,30.08,SW,231,2.0,7.0,61,0.01,,---,0.02,VWS V14.01,2013-12-28 17:41:00,
2013-12-28 11:46:00,46.1,33.4,30.08,SSW,192,1.0,5.0,61,0.01,,---,0.02,VWS V14.01,2013-12-28 17:46:00,
2013-12-28 11:50:00,45.9,33.6,30.09,SSW,209,4.0,4.0,62,0.02,,---,0.02,VWS V14.01,2013-12-28 17:50:00,
2013-12-28 11:51:00,46.3,33.6,30.07,South,185,3.0,5.0,61,0.02,,---,0.03,VWS V14.01,2013-12-28 17:51:00,
2013-12-28 11:56:00,46.4,33.7,30.07,SSE,159,2.0,5.0,61,0.01,,---,0.03,VWS V14.01,2013-12-28 17:56:00,
2013-12-28 12:00:00,46.1,33.4,30.08,SE,142,1.0,7.0,61,0.01,,---,0.02,VWS V14.01,2013-12-28 18:00:00,
2013-12-28 12:01:00,46.6,33.9,30.06,SSE,154,5.0,5.0,61,0.01,,---,0.03,VWS V14.01,2013-12-28 18:01:00,
2013-12-28 12:06:00,46.8,33.7,30.05,SW,232,2.0,3.0,60,0.01,,---,0.03,VWS V14.01,2013-12-28 18:06:00,
2013-12-28 12:10:00,46.4,33.7,30.07,South,174,4.0,5.0,61,0.02,,---,0.03,VWS V14.01,2013-12-28 18:10:00,
2013-12-28 12:11:00,47.1,33.9,30.05,SSW,200,0.0,7.0,60,0.01,,---,0.03,VWS V14.01,2013-12-28 18:11:00,
2013-12-28 12:16:00,47.4,33.8,30.05,SE,145,1.0,5.0,59,0.01,,---,0.03,VWS V14.01,2013-12-28 18:16:00,
2013-12-28 12:20:00,46.7,34.0,30.06,SSW,210,0.0,5.0,61,0.01,,---,0.03,VWS V14.01,2013-12-28 18:20:00,
2013-12-28 12:21:00,47.8,34.2,30.05,WSW,244,4.0,8.0,59,0.01,,---,0.03,VWS V14.01,2013-12-28 18:21:00,
2013-12-28 12:26:00,48.1,34.0,30.04,South,174,4.0,4.0,58,0.01,,---,0.03,VWS V14.01,2013-12-28 18:26:00,
2013-12-28 12:30:00,47.3,34.1,30.05,WSW,255,4.0,7.0,60,0.01,,---,0.03,VWS V14.01,2013-12-28 18:30:00,
2013-12-28 12:31:00,48.4,34.3,30.03,SSE,159,2.0,6.0,58,0.02,,---,0.04,VWS V14.01,2013-12-28 18:31:00,
2013-12-28 12:36:00,48.6,34.1,30.03,SW,229,1.0,3.0,57,0.02,,---,0.04,VWS V14.01,2013-12-28 18:36:00,
2013-12-28 12:40:00,48.0,34.4,30.04,West,262,0.0,8.0,59,0.01,,---,0.03,VWS V14.01,2013-12-28 18:40:00,
2013-12-28 12:41:00,48.9,34.3,30.03,West,259,5.0,9.0,57,0.02,,---,0.04,VWS V14.01,2013-12-28 18:41:00,
2013-12-28 12:46:00,49.2,33.7,30.03,SW,223,0.0,2.0,55,0.02,,---,0.04,VWS V14.01,2013-12-28 18:46:00,
2013-12-28 12:50:00,48.5,34.8,30.03,West,276,1.0,6.0,59,0.02,,---,0.04,VWS V14.01,2013-12-28 18:50:00,
2013-12-28 12:51:00,49.4,34.4,30.03,South,171,2.0,4.0,56,0.02,,---,0.04,VWS V14.01,2013-12-28 18:51:00,
2013-12-28 12:56:00,49.6,34.6,30.02,SSW,211,2.0,5.0,56,0.01,,---,0.04,VWS V14.01,2013-12-28 18:56:00,
2013-12-28 13:00:00,49.1,34.1,30.03,SW,226,1.0,9.0,56,0.02,,---,0.04,VWS V14.01,2013-12-28 19:00:00,
2013-12-28 13:01:00,49.7,34.7,30.02,SSE,159,2.0,5.0,56,0.01,,---,0.04,VWS V14.01,2013-12-28 19:01:00,
2013-12-28 13:06:00,49.9,34.4,30.02,SSE,162,0.0,2.0,55,0.01,,---,0.04,VWS V14.01,2013-12-28 19:06:00,
2013-12-28 13:10:00,49.5,34.5,30.03,South,187,1.0,4.0,56,0.02,,---,0.04,VWS V14.01,2013-12-28 19:10:00,
2013-12-28 13:11:00,50.1,35.0,30.01,South,181,4.0,4.0,56,0.01,,---,0.04,VWS V14.01,2013-12-28 19:11:00,
2013-12-28 13:16:00,50.3,34.8,30.01,SW,223,3.0,3.0,55,0.02,,---,0.05,VWS V14.01,2013-12-28 19:16:00,
2013-12-28 13:20:00,49.9,34.4,30.01,SSE,162,4.0,5.0,55,0.01,,---,0.04,VWS V14.01,2013-12-28 19:20:00,
2013-12-28 13:21:00,50.5,35.0,30.00,South,191,1.0,3.0,55,0.02,,---,0.05,VWS V14.01,2013-12-28 19:21:00,
2013-12-28 13:26:00,50.8,34.8,30.00,SE,142,2.0,6.0,54,0.02,,---,0.05,VWS V14.01,2013-12-28 19:26:00,
2013-12-28 13:30:00,50.2,34.7,30.01,SW,228,1.0,4.0,55,0.02,,---,0.05,VWS V14.01,2013-12-28 19:30:00,
2013-12-28 13:31:00,50.9,35.3,30.00,SSE,150,4.0,6.0,55,0.02,,---,0.05,VWS V14.01,2013-12-28 19:31:00,
2013-12-28 13:36:00,51.0,35.4,30.00,South,184,0.0,2.0,55,0.01,,---,0.05,VWS V14.01,2013-12-28 19:36:00,
2013-12-28 13:40:00,50.7,34.7,30.00,SW,214,0.0,7.0,54,0.02,,---,0.05,VWS V14.01,2013-12-28 19:40:00,
2013-12-28 13:41:00,51.1,35.0,29.99,SSW,202,6.0,6.0,54,0.01,,---,0.05,VWS V14.01,2013-12-28 19:41:00,
2013-12-28 13:46:00,51.2,35.1,29.98,South,190,0.0,5.0,54,0.01,,---,0.05,VWS V14.01,2013-12-28 19:46:00,
2013-12-28 13:50:00,51.0,35.4,30.00,SSW,198,2.0,6.0,55,0.02,,---,0.05,VWS V14.01,2013-12-28 19:50:00,
2013-12-28 13:51:00,51.4,35.3,29.98,WSW,243,6.0,7.0,54,0.01,,---,0.05,VWS V14.01,2013-12-28 19:51:00,
2013-12-28 13:56:00,51.5,35.0,29.98,South,171,2.0,7.0,53,0.02,,---,0.06,VWS V14.01,2013-12-28 19:56:00,
2013-12-28 14:00:00,51.2,35.1,29.99,SSE,153,4.0,6.0,54,0.01,,---,0.05,VWS V14.01,2013-12-28 20:00:00,
2013-12-28 14:01:00,51.7,34.7,29.98,SE,138,0.0,7.0,52,0.02,,---,0.06,VWS V14.01,2013-12-28 20:01:00,
2013-12-28 14:06:00,51.8,35.2,29.97,South,190,0.0,2.0,53,0.02,,---,0.06,VWS V14.01,2013-12-28 20:06:00,
2013-12-28 14:10:00,51.5,35.4,29.98,South,189,3.0,7.0,54,0.01,,---,0.05,VWS V14.01,2013-12-28 20:10:00,
2013-12-28 14:11:00,51.8,34.8,29.97,SSE,159,2.0,7.0,52,0.02,,---,0.06,VWS V14.01,2013-12-28 20:11:00,
2013-12-28 14:16:00,51.9,34.8,29.97,SSE,148,1.0,4.0,52,0.01,,---,0.06,VWS V14.01,2013-12-28 20:16:00,
2013-12-28 14:20:00,51.7,35.1,29.97,SSW,193,2.0,7.0,53,0.02,,---,0.06,VWS V14.01,2013-12-28 20:20:00,
2013-12-28 14:21:00,52.0,34.9,29.97,SSE,149,2.0,5.0,52,0.01,,---,0.06,VWS V14.01,2013-12-28 20:21:00,
2013-12-28 14:26:00,52.1,35.0,29.97,WSW,257,3.0,4.0,52,0.01,,---,0.06,VWS V14.01,2013-12-28 20:26:00,
2013-12-28 14:30:00,51.9,34.8,29.97,WSW,246,0.0,7.0,52,0.02,,---,0.06,VWS V14.01,2013-12-28 20:30:00,
2013-12-28 14:31:00,52.2,35.1,29.97,South,189,1.0,7.0,52,0.01,,---,0.06,VWS V14.01,2013-12-28 20:31:00,
2013-12-28 14:36:00,52.2,34.6,29.97,SSW,200,1.0,3.0,51,0.01,,---,0.06,VWS V14.01,2013-12-28 20:36:00,
2013-12-28 14:40:00,52.1,34.5,29.97,ENE,75,1.0,5.0,51,0.01,,---,0.06,VWS V14.01,2013-12-28 20:40:00,
2013-12-28 14:41:00,52.3,34.2,29.96,South,180,3.0,10.0,50,0.01,,---,0.06,VWS V14.01,2013-12-28 20:41:00,
2013-12-28 14:46:00,52.4,34.3,29.96,SSW,200,1.0,6.0,50,0.01,,---,0.06,VWS V14.01,2013-12-28 20:46:00,
2013-12-28 14:50:00,52.2,34.1,29.97,SSW,208,2.0,7.0,50,0.01,,---,0.06,VWS V14.01,2013-12-28 20:50:00,
2013-12-28 14:51:00,52.4,34.8,29.96,South,176,0.0,6.0,51,0.01,,---,0.06,VWS V14.01,2013-12-28 20:51:00,
2013-12-28 14:56:00,52.5,34.4,29.96,SSW,198,0.0,3.0,50,0.01,,---,0.06,VWS V14.01,2013-12-28 20:56:00,
2013-12-28 15:00:00,52.4,34.8,29.96,SE,140,1.0,10.0,51,0.01,,---,0.06,VWS V14.01,2013-12-28 21:00:00,
2013-12-28 15:01:00,52.5,34.4,29.95,West,260,3.0,6.0,50,0.01,,---,0.06,VWS V14.01,2013-12-28 21:01:00,
2013-12-28 15:06:00,52.6,34.5,29.96,WSW,254,0.0,4.0,50,0.00,,---,0.06,VWS V14.01,2013-12-28 21:06:00,
2013-12-28 15:10:00,52.4,34.3,29.96,SW,225,3.0,10.0,50,0.01,,---,0.06,VWS V14.01,2013-12-28 21:10:00,
2013-12-28 15:11:00,52.6,34.5,29.96,South,188,0.0,4.0,50,0.00,,---,0.06,VWS V14.01,2013-12-28 21:11:00,
2013-12-28 15:16:00,52.7,34.6,29.95,SE,139,4.0,5.0,50,0.00,,---,0.06,VWS V14.01,2013-12-28 21:16:00,
2013-12-28 15:20:00,52.5,34.4,29.96,WSW,241,4.0,6.0,50,0.01,,---,0.06,VWS V14.01,2013-12-28 21:20:00,
2013-12-28 15:21:00,52.7,35.1,29.95,South,190,1.0,7.0,51,0.00,,---,0.06,VWS V14.01,2013-12-28 21:21:00,
2013-12-28 15:26:00,52.6,34.5,29.95,South,175,2.0,4.0,50,0.00,,---,0.06,VWS V14.01,2013-12-28 21:26:00,
2013-12-28 15:30:00,52.7,35.1,29.96,SSE,167,2.0,4.0,51,0.00,,---,0.06,VWS V14.01,2013-12-28 21:30:00,
2013-12-28 15:31:00,52.4,34.8,29.95,SSW,196,2.0,10.0,51,0.00,,---,0.06,VWS V14.01,2013-12-28 21:31:00,
2013-12-28 15:36:00,52.3,35.2,29.95,SSW,208,3.0,8.0,52,0.00,,---,0.06,VWS V14.01,2013-12-28 21:36:00,
2013-12-28 15:40:00,52.6,34.5,29.95,South,174,0.0,7.0,50,0.00,,---,0.06,VWS V14.01,2013-12-28 21:40:00,
2013-12-28 15:41:00,52.2,34.6,29.95,SW,232,4.0,8.0,51,0.00,,---,0.06,VWS V14.01,2013-12-28 21:41:00,
2013-12-28 15:46:00,52.1,34.5,29.95,South,178,2.0,4.0,51,0.00,,---,0.06,VWS V14.01,2013-12-28 21:46:00,
2013-12-28 15:50:00,52.3,34.2,29.95,SW,214,2.0,10.0,50,0.00,,---,0.06,VWS V14.01,2013-12-28 21:50:00,
2013-12-28 15:51:00,52.1,34.5,29.95,South,171,2.0,6.0,51,0.00,,---,0.06,VWS V14.01,2013-12-28 21:51:00,
2013-12-28 15:56:00,52.0,34.5,29.95,WSW,256,0.0,4.0,51,0.00,,---,0.06,VWS V14.01,2013-12-28 21:56:00,
2013-12-28 16:00:00,52.2,34.6,29.95,South,188,1.0,8.0,51,0.00,,---,0.06,VWS V14.01,2013-12-28 22:00:00,
2013-12-28 16:01:00,51.9,34.4,29.95,SSW,197,3.0,5.0,51,0.00,,---,0.06,VWS V14.01,2013-12-28 22:01:00,
2013-12-28 16:06:00,51.8,34.3,29.95,SW,234,0.0,1.0,51,0.00,,---,0.06,VWS V14.01,2013-12-28 22:06:00,
2013-12-28 16:10:00,52.0,34.5,29.95,WSW,240,1.0,6.0,51,0.00,,---,0.06,VWS V14.01,2013-12-28 22:10:00,
2013-12-28 16:11:00,51.7,34.2,29.95,SSW,197,1.0,5.0,51,0.00,,---,0.06,VWS V14.01,2013-12-28 22:11:00,
2013-12-28 16:16:00,51.5,34.0,29.95,SSW,207,1.0,6.0,51,0.00,,---,0.06,VWS V14.01,2013-12-28 22:16:00,
2013-12-28 16:20:00,51.8,34.3,29.95,SW,234,0.0,5.0,51,0.00,,---,0.06,VWS V14.01,2013-12-28 22:20:00,
2013-12-28 16:21:00,51.2,33.7,29.95,SSW,207,1.0,6.0,51,0.00,,---,0.06,VWS V14.01,2013-12-28 22:21:00,
2013-12-28 16:26:00,50.8,33.8,29.95,SW,227,1.0,3.0,52,0.00,,---,0.06,VWS V14.01,2013-12-28 22:26:00,
2013-12-28 16:30:00,51.5,34.0,29.95,SSW,196,2.0,5.0,51,0.00,,---,0.06,VWS V14.01,2013-12-28 22:30:00,
2013-12-28 16:31:00,50.5,33.5,29.95,SW,217,2.0,4.0,52,0.00,,---,0.06,VWS V14.01,2013-12-28 22:31:00,
2013-12-28 16:36:00,50.2,33.3,29.95,South,182,1.0,1.0,52,0.00,,---,0.06,VWS V14.01,2013-12-28 22:36:00,
2013-12-28 16:40:00,50.9,33.9,29.94,SSW,194,2.0,6.0,52,0.00,,---,0.06,VWS V14.01,2013-12-28 22:40:00,
2013-12-28 16:41:00,49.9,33.5,29.95,South,182,0.0,2.0,53,0.00,,---,0.06,VWS V14.01,2013-12-28 22:41:00,
2013-12-28 16:46:00,49.5,33.6,29.95,SSE,155,0.0,1.0,54,0.00,,---,0.06,VWS V14.01,2013-12-28 22:46:00,
2013-12-28 16:50:00,50.3,33.4,29.95,South,182,1.0,4.0,52,0.00,,---,0.06,VWS V14.01,2013-12-28 22:50:00,
2013-12-28 16:51:00,49.2,33.3,29.95,SW,225,2.0,4.0,54,0.00,,---,0.06,VWS V14.01,2013-12-28 22:51:00,
2013-12-28 16:56:00,49.0,33.1,29.95,SW,226,5.0,5.0,54,0.00,,---,0.06,VWS V14.01,2013-12-28 22:56:00,
2013-12-28 17:00:00,49.6,33.7,29.95,SSE,155,0.0,6.0,54,0.00,,---,0.06,VWS V14.01,2013-12-28 23:00:00,
2013-12-28 17:01:00,48.8,33.4,29.94,SW,226,0.0,5.0,55,0.00,,---,0.06,VWS V14.01,2013-12-28 23:01:00,
2013-12-28 17:06:00,48.4,33.0,29.94,SW,226,2.0,2.0,55,0.00,,---,0.06,VWS V14.01,2013-12-28 23:06:00,
2013-12-28 17:10:00,49.1,33.2,29.95,SW,225,2.0,4.0,54,0.00,,---,0.06,VWS V14.01,2013-12-28 23:10:00,
2013-12-28 17:11:00,48.1,33.2,29.94,SW,226,0.0,3.0,56,0.00,,---,0.06,VWS V14.01,2013-12-28 23:11:00,
2013-12-28 17:16:00,47.7,33.2,29.94,SE,146,0.0,2.0,57,0.00,,---,0.06,VWS V14.01,2013-12-28 23:16:00,
2013-12-28 17:20:00,48.5,33.1,29.94,SW,226,0.0,5.0,55,0.00,,---,0.06,VWS V14.01,2013-12-28 23:20:00,
2013-12-28 17:21:00,47.5,33.0,29.94,SE,146,0.0,4.0,57,0.00,,---,0.06,VWS V14.01,2013-12-28 23:21:00,
2013-12-28 17:26:00,47.3,32.8,29.94,SE,137,1.0,2.0,57,0.00,,---,0.06,VWS V14.01,2013-12-28 23:26:00,
2013-12-28 17:30:00,47.8,32.9,29.95,SE,146,1.0,5.0,56,0.00,,---,0.06,VWS V14.01,2013-12-28 23:30:00,
2013-12-28 17:31:00,47.1,33.1,29.95,SE,137,0.0,2.0,58,0.00,,---,0.06,VWS V14.01,2013-12-28 23:31:00,
2013-12-28 17:36:00,46.8,32.8,29.94,SE,137,0.0,2.0,58,0.00,,---,0.06,VWS V14.01,2013-12-28 23:36:00,
2013-12-28 17:40:00,47.4,33.0,29.95,SE,146,1.0,4.0,57,0.00,,---,0.06,VWS V14.01,2013-12-28 23:40:00,
2013-12-28 17:41:00,46.6,33.0,29.94,West,259,2.0,6.0,59,0.00,,---,0.06,VWS V14.01,2013-12-28 23:41:00,
2013-12-28 17:46:00,46.4,32.9,29.94,South,174,2.0,5.0,59,0.00,,---,0.06,VWS V14.01,2013-12-28 23:46:00,
2013-12-28 17:50:00,46.9,32.9,29.94,SE,137,0.0,2.0,58,0.00,,---,0.06,VWS V14.01,2013-12-28 23:50:00,
2013-12-28 17:51:00,46.3,33.2,29.94,SSW,206,1.0,6.0,60,0.00,,---,0.06,VWS V14.01,2013-12-28 23:51:00,
2013-12-28 17:56:00,46.3,33.6,29.94,South,188,3.0,5.0,61,0.00,,---,0.06,VWS V14.01,2013-12-28 23:56:00,
2013-12-28 18:00:00,46.4,32.9,29.94,SSE,165,1.0,6.0,59,0.00,,---,0.06,VWS V14.01,2013-12-29 00:00:00,
2013-12-28 18:01:00,46.3,33.6,29.95,SW,220,1.0,10.0,61,0.00,,---,0.06,VWS V14.01,2013-12-29 00:01:00,
2013-12-28 18:06:00,46.4,33.7,29.94,SSW,199,1.0,4.0,61,0.00,,---,0.06,VWS V14.01,2013-12-29 00:06:00,
2013-12-28 18:10:00,46.3,33.6,29.94,SW,236,0.0,6.0,61,0.00,,---,0.06,VWS V14.01,2013-12-29 00:10:00,
2013-12-28 18:11:00,46.5,33.8,29.94,WSW,256,0.0,6.0,61,0.00,,---,0.06,VWS V14.01,2013-12-29 00:11:00,
2013-12-28 18:16:00,46.5,34.2,29.94,SW,227,4.0,5.0,62,0.00,,---,0.06,VWS V14.01,2013-12-29 00:16:00,
2013-12-28 18:20:00,46.4,33.7,29.94,SSW,196,4.0,10.0,61,0.00,,---,0.06,VWS V14.01,2013-12-29 00:20:00,
2013-12-28 18:21:00,46.4,34.1,29.94,SSW,202,3.0,5.0,62,0.00,,---,0.06,VWS V14.01,2013-12-29 00:21:00,
2013-12-28 18:26:00,46.5,34.2,29.94,South,169,1.0,5.0,62,0.00,,---,0.06,VWS V14.01,2013-12-29 00:26:00,
2013-12-28 18:30:00,46.5,34.2,29.94,SW,220,2.0,7.0,62,0.00,,---,0.06,VWS V14.01,2013-12-29 00:30:00,
2013-12-28 18:31:00,46.5,34.2,29.94,SE,146,0.0,5.0,62,0.00,,---,0.06,VWS V14.01,2013-12-29 00:31:00,
2013-12-28 18:36:00,46.3,34.4,29.94,SSW,198,0.0,8.0,63,0.00,,---,0.06,VWS V14.01,2013-12-29 00:36:00,
2013-12-28 18:40:00,46.5,34.2,29.94,South,169,1.0,6.0,62,0.00,,---,0.06,VWS V14.01,2013-12-29 00:40:00,
2013-12-28 18:41:00,46.1,34.2,29.94,East,81,2.0,8.0,63,0.00,,---,0.06,VWS V14.01,2013-12-29 00:41:00,
2013-12-28 18:46:00,46.1,34.6,29.94,SW,216,2.0,5.0,64,0.00,,---,0.06,VWS V14.01,2013-12-29 00:46:00,
2013-12-28 18:50:00,46.4,34.1,29.94,SSW,198,3.0,5.0,62,0.00,,---,0.06,VWS V14.01,2013-12-29 00:50:00,
2013-12-28 18:51:00,46.0,34.5,29.94,SSE,148,0.0,5.0,64,0.00,,---,0.06,VWS V14.01,2013-12-29 00:51:00,
2013-12-28 18:56:00,46.1,34.6,29.94,SSE,154,4.0,4.0,64,0.00,,---,0.06,VWS V14.01,2013-12-29 00:56:00,
2013-12-28 19:00:00,46.1,34.6,29.93,WSW,254,0.0,8.0,64,0.00,,---,0.06,VWS V14.01,2013-12-29 01:00:00,
2013-12-28 19:01:00,46.1,34.6,29.95,SSE,165,1.0,4.0,64,0.00,,---,0.06,VWS V14.01,2013-12-29 01:01:00,
2013-12-28 19:06:00,46.1,34.6,29.95,SSE,157,1.0,1.0,64,0.00,,---,0.06,VWS V14.01,2013-12-29 01:06:00,
2013-12-28 19:10:00,46.0,34.5,29.94,SE,134,0.0,5.0,64,0.00,,---,0.06,VWS V14.01,2013-12-29 01:10:00,
2013-12-28 19:11:00,46.0,34.5,29.95,SSE,157,1.0,2.0,64,0.00,,---,0.06,VWS V14.01,2013-12-29 01:11:00,
2013-12-28 19:15:00,45.9,34.8,29.95,SSW,212,0.0,2.0,65,0.00,,---,0.06,VWS V14.01,2013-12-29 01:15:00,
2013-12-28 19:20:00,45.8,34.7,29.95,SSW,212,0.0,2.0,65,0.00,,---,0.06,VWS V14.01,2013-12-29 01:20:00,
2013-12-28 19:25:00,45.6,34.5,29.95,SSW,212,0.0,0.0,65,0.00,,---,0.06,VWS V14.01,2013-12-29 01:25:00,
2013-12-28 19:30:00,45.5,34.4,29.96,SSW,205,0.0,2.0,65,0.00,,---,0.06,VWS V14.01,2013-12-29 01:30:00,
2013-12-28 19:35:00,45.3,34.6,29.96,SSW,195,0.0,0.0,66,0.00,,---,0.06,VWS V14.01,2013-12-29 01:35:00,
2013-12-28 19:40:00,45.1,34.8,29.96,SSW,195,0.0,3.0,67,0.00,,---,0.06,VWS V14.01,2013-12-29 01:40:00,
2013-12-28 19:45:00,44.9,34.6,29.96,SSW,195,0.0,1.0,67,0.00,,---,0.06,VWS V14.01,2013-12-29 01:45:00,
2013-12-28 19:50:00,44.7,34.4,29.97,SSW,195,0.0,1.0,67,0.00,,---,0.06,VWS V14.01,2013-12-29 01:50:00,
2013-12-28 19:55:00,44.5,34.2,29.97,SSW,195,0.0,1.0,67,0.00,,---,0.06,VWS V14.01,2013-12-29 01:55:00,
2013-12-28 20:00:00,44.3,34.4,29.97,SW,225,4.0,4.0,68,0.00,,---,0.06,VWS V14.01,2013-12-29 02:00:00,
2013-12-28 20:05:00,44.3,34.4,29.98,SW,227,0.0,1.0,68,0.00,,---,0.06,VWS V14.01,2013-12-29 02:05:00,
2013-12-28 20:10:00,44.2,34.3,29.98,SW,227,0.0,3.0,68,0.00,,---,0.06,VWS V14.01,2013-12-29 02:10:00,
2013-12-28 20:15:00,44.0,34.5,29.98,SW,227,0.0,0.0,69,0.00,,---,0.06,VWS V14.01,2013-12-29 02:15:00,
2013-12-28 20:20:00,43.8,34.3,29.98,SW,227,0.0,0.0,69,0.00,,---,0.06,VWS V14.01,2013-12-29 02:20:00,
2013-12-28 20:25:00,43.6,34.1,29.98,SW,227,0.0,0.0,69,0.00,,---,0.06,VWS V14.01,2013-12-29 02:25:00,
2013-12-28 20:30:00,43.2,34.1,29.98,SW,227,0.0,1.0,70,0.00,,---,0.06,VWS V14.01,2013-12-29 02:30:00,
2013-12-28 20:35:00,42.9,33.8,29.98,SW,227,1.0,2.0,70,0.00,,---,0.06,VWS V14.01,2013-12-29 02:35:00,
2013-12-28 20:40:00,42.4,33.7,29.98,SW,227,0.0,2.0,71,0.00,,---,0.06,VWS V14.01,2013-12-29 02:40:00,
2013-12-28 20:45:00,42.1,34.1,29.98,SW,227,0.0,0.0,73,0.00,,---,0.06,VWS V14.01,2013-12-29 02:45:00,
2013-12-28 20:50:00,41.9,34.2,29.98,SW,227,0.0,0.0,74,0.00,,---,0.06,VWS V14.01,2013-12-29 02:50:00,
2013-12-28 20:55:00,41.8,34.1,29.98,SW,227,0.0,0.0,74,0.00,,---,0.06,VWS V14.01,2013-12-29 02:55:00,
2013-12-28 21:00:00,41.7,34.0,29.98,SW,227,0.0,1.0,74,0.00,,---,0.06,VWS V14.01,2013-12-29 03:00:00,
2013-12-28 21:05:00,41.6,34.3,29.97,SW,227,0.0,0.0,75,0.00,,---,0.06,VWS V14.01,2013-12-29 03:05:00,
2013-12-28 21:10:00,41.6,34.3,29.98,SW,227,0.0,1.0,75,0.00,,---,0.06,VWS V14.01,2013-12-29 03:10:00,
2013-12-28 21:15:00,41.6,34.3,29.98,SW,227,0.0,0.0,75,0.00,,---,0.06,VWS V14.01,2013-12-29 03:15:00,
2013-12-28 21:20:00,41.6,34.3,29.99,SW,227,0.0,0.0,75,0.00,,---,0.06,VWS V14.01,2013-12-29 03:20:00,
2013-12-28 21:25:00,41.5,34.2,30.00,WSW,239,1.0,1.0,75,0.00,,---,0.06,VWS V14.01,2013-12-29 03:25:00,
2013-12-28 21:30:00,41.3,34.0,30.02,SW,236,2.0,8.0,75,0.00,,---,0.06,VWS V14.01,2013-12-29 03:30:00,
2013-12-28 21:35:00,41.2,33.9,30.01,WSW,244,0.0,8.0,75,0.00,,---,0.06,VWS V14.01,2013-12-29 03:35:00,
2013-12-28 21:40:00,41.1,33.5,30.01,West,261,3.0,8.0,74,0.00,,---,0.06,VWS V14.01,2013-12-29 03:40:00,
2013-12-28 21:45:00,41.0,33.4,30.00,West,269,0.0,2.0,74,0.00,,---,0.06,VWS V14.01,2013-12-29 03:45:00,
2013-12-28 21:50:00,40.8,33.2,30.01,WNW,303,1.0,4.0,74,0.00,,---,0.06,VWS V14.01,2013-12-29 03:50:00,
2013-12-28 21:55:00,40.6,33.0,30.01,WNW,303,0.0,0.0,74,0.00,,---,0.06,VWS V14.01,2013-12-29 03:55:00,
2013-12-28 22:00:00,40.3,33.0,30.01,NW,313,2.0,3.0,75,0.00,,---,0.06,VWS V14.01,2013-12-29 04:00:00,
2013-12-28 22:05:00,40.0,32.7,30.02,SW,234,1.0,4.0,75,0.00,,---,0.06,VWS V14.01,2013-12-29 04:05:00,
2013-12-28 22:10:00,40.0,32.1,30.02,West,261,2.0,14.0,73,0.00,,---,0.06,VWS V14.01,2013-12-29 04:10:00,
2013-12-28 22:15:00,40.1,33.2,30.01,NNW,342,5.0,8.0,76,0.00,,---,0.06,VWS V14.01,2013-12-29 04:15:00,
2013-12-28 22:20:00,40.2,31.9,30.02,NW,309,4.0,10.0,72,0.00,,---,0.06,VWS V14.01,2013-12-29 04:20:00,
2013-12-28 22:25:00,40.1,31.8,30.02,WSW,250,3.0,3.0,72,0.00,,---,0.06,VWS V14.01,2013-12-29 04:25:00,
2013-12-28 22:30:00,40.0,31.7,30.02,WSW,257,1.0,12.0,72,0.00,,---,0.06,VWS V14.01,2013-12-29 04:30:00,
2013-12-28 22:35:00,39.8,31.5,30.03,WNW,290,6.0,9.0,72,0.00,,---,0.06,VWS V14.01,2013-12-29 04:35:00,
2013-12-28 22:40:00,39.5,31.6,30.04,WNW,287,4.0,9.0,73,0.00,,---,0.06,VWS V14.01,2013-12-29 04:40:00,
2013-12-28 22:45:00,39.3,31.4,30.04,ENE,63,3.0,7.0,73,0.00,,---,0.06,VWS V14.01,2013-12-29 04:45:00,
2013-12-28 22:50:00,39.0,31.1,30.04,East,81,3.0,12.0,73,0.00,,---,0.06,VWS V14.01,2013-12-29 04:50:00,
2013-12-28 22:55:00,38.7,30.8,30.04,North,9,5.0,8.0,73,0.00,,---,0.06,VWS V14.01,2013-12-29 04:55:00,
2013-12-28 23:00:00,38.3,30.4,30.04,NE,36,1.0,13.0,73,0.00,,---,0.06,VWS V14.01,2013-12-29 05:00:00,
2013-12-28 23:01:00,38.3,30.4,30.04,NE,36,1.0,13.0,73,0.00,,---,0.06,VWS V14.01,2013-12-29 05:01:00,
2013-12-28 23:06:00,37.9,30.4,30.04,ESE,105,0.0,11.0,74,0.00,,---,0.06,VWS V14.01,2013-12-29 05:06:00,
2013-12-28 23:10:00,38.7,30.8,30.04,NW,324,2.0,12.0,73,0.00,,---,0.06,VWS V14.01,2013-12-29 05:10:00,
2013-12-28 23:11:00,37.6,30.1,30.04,SSW,209,6.0,11.0,74,0.00,,---,0.06,VWS V14.01,2013-12-29 05:11:00,
2013-12-28 23:16:00,37.3,30.1,30.05,WNW,297,13.0,14.0,75,0.00,,---,0.06,VWS V14.01,2013-12-29 05:16:00,
2013-12-28 23:20:00,38.0,30.5,30.04,WNW,302,5.0,13.0,74,0.00,,---,0.06,VWS V14.01,2013-12-29 05:20:00,
2013-12-28 23:21:00,37.0,29.8,30.05,South,185,1.0,14.0,75,0.00,,---,0.06,VWS V14.01,2013-12-29 05:21:00,
2013-12-28 23:26:00,36.7,29.9,30.05,West,274,4.0,7.0,76,0.00,,---,0.06,VWS V14.01,2013-12-29 05:26:00,
2013-12-28 23:30:00,37.4,30.2,30.05,WNW,290,5.0,13.0,75,0.00,,---,0.06,VWS V14.01,2013-12-29 05:30:00,
2013-12-28 23:31:00,36.4,29.2,30.06,WNW,285,6.0,10.0,75,0.00,,---,0.06,VWS V14.01,2013-12-29 05:31:00,
2013-12-28 23:36:00,35.8,28.7,30.07,WSW,244,3.0,14.0,75,0.00,,---,0.06,VWS V14.01,2013-12-29 05:36:00,
2013-12-28 23:40:00,36.8,29.6,30.05,West,270,0.0,14.0,75,0.00,,---,0.06,VWS V14.01,2013-12-29 05:40:00,
2013-12-28 23:41:00,35.2,28.4,30.07,West,270,6.0,14.0,76,0.00,,---,0.06,VWS V14.01,2013-12-29 05:41:00,
2013-12-28 23:46:00,34.6,27.8,30.07,SSE,154,5.0,16.0,76,0.00,,---,0.00,VWS V14.01,2013-12-29 05:46:00,
2013-12-28 23:50:00,36.1,29.0,30.06,West,273,5.0,12.0,75,0.00,,---,0.06,VWS V14.01,2013-12-29 05:50:00,
2013-12-28 23:51:00,33.8,27.0,30.07,WSW,257,8.0,16.0,76,0.00,,---,0.00,VWS V14.01,2013-12-29 05:51:00,
2013-12-28 23:56:00,33.2,26.8,30.07,NNW,348,6.0,14.0,77,0.00,,---,0.00,VWS V14.01,2013-12-29 05:56:00,